sensor_id;sensor_type;location;lat;lon;timestamp;temperature;humidity
31725;DHT22;18306;40.960;14.836;2023-03-14T00:01:24;14.50;99.90
31725;DHT22;18306;40.960;14.836;2023-03-14T00:03:51;14.40;99.90
31725;DHT22;18306;40.960;14.836;2023-03-14T00:06:19;14.40;99.90
31725;DHT22;18306;40.960;14.836;2023-03-14T00:08:47;14.30;99.90
31725;DHT22;18306;40.960;14.836;2023-03-14T00:11:17;14.30;99.90
31725;DHT22;18306;40.960;14.836;2023-03-14T00:13:51;14.20;99.90
31725;DHT22;18306;40.960;14.836;2023-03-14T00:16:19;14.20;99.90
31725;DHT22;18306;40.960;14.836;2023-03-14T00:18:46;14.10;99.90
31725;DHT22;18306;40.960;14.836;2023-03-14T00:21:14;14.00;99.90
31725;DHT22;18306;40.960;14.836;2023-03-14T00:23:42;14.00;99.90
31725;DHT22;18306;40.960;14.836;2023-03-14T00:26:17;13.90;99.90
31725;DHT22;18306;40.960;14.836;2023-03-14T00:28:45;13.90;99.90
31725;DHT22;18306;40.960;14.836;2023-03-14T00:31:15;13.90;99.90
31725;DHT22;18306;40.960;14.836;2023-03-14T00:33:43;13.90;99.90
31725;DHT22;18306;40.960;14.836;2023-03-14T00:36:13;13.80;99.90
31725;DHT22;18306;40.960;14.836;2023-03-14T00:38:42;13.80;99.90
31725;DHT22;18306;40.960;14.836;2023-03-14T00:41:12;13.80;99.90
31725;DHT22;18306;40.960;14.836;2023-03-14T00:43:42;13.60;99.90
31725;DHT22;18306;40.960;14.836;2023-03-14T00:46:09;13.70;99.90
31725;DHT22;18306;40.960;14.836;2023-03-14T00:48:38;13.70;99.90
31725;DHT22;18306;40.960;14.836;2023-03-14T00:51:06;13.60;99.90
31725;DHT22;18306;40.960;14.836;2023-03-14T00:53:37;13.60;99.90
31725;DHT22;18306;40.960;14.836;2023-03-14T00:56:07;13.70;99.90
31725;DHT22;18306;40.960;14.836;2023-03-14T00:58:38;13.60;99.90
31725;DHT22;18306;40.960;14.836;2023-03-14T01:01:14;13.60;99.90
31725;DHT22;18306;40.960;14.836;2023-03-14T01:03:42;13.60;99.90
31725;DHT22;18306;40.960;14.836;2023-03-14T01:06:12;13.60;99.90
31725;DHT22;18306;40.960;14.836;2023-03-14T01:08:40;13.50;99.90
31725;DHT22;18306;40.960;14.836;2023-03-14T01:11:09;13.50;99.90
31725;DHT22;18306;40.960;14.836;2023-03-14T01:13:37;13.50;99.90
31725;DHT22;18306;40.960;14.836;2023-03-14T01:16:07;13.50;99.90
31725;DHT22;18306;40.960;14.836;2023-03-14T01:18:38;13.50;99.90
31725;DHT22;18306;40.960;14.836;2023-03-14T01:21:15;13.70;99.90
31725;DHT22;18306;40.960;14.836;2023-03-14T01:23:44;13.90;99.90
31725;DHT22;18306;40.960;14.836;2023-03-14T01:26:16;13.70;99.90
31725;DHT22;18306;40.960;14.836;2023-03-14T01:28:47;13.70;99.90
31725;DHT22;18306;40.960;14.836;2023-03-14T01:31:16;13.90;99.90
31725;DHT22;18306;40.960;14.836;2023-03-14T01:33:44;13.70;99.90
31725;DHT22;18306;40.960;14.836;2023-03-14T01:36:13;14.00;99.90
31725;DHT22;18306;40.960;14.836;2023-03-14T01:38:42;14.40;99.90
31725;DHT22;18306;40.960;14.836;2023-03-14T01:41:19;14.70;99.90
31725;DHT22;18306;40.960;14.836;2023-03-14T01:43:54;14.90;99.90
31725;DHT22;18306;40.960;14.836;2023-03-14T01:46:37;14.90;99.90
31725;DHT22;18306;40.960;14.836;2023-03-14T01:52:08;14.60;99.90
31725;DHT22;18306;40.960;14.836;2023-03-14T01:54:40;14.80;99.90
31725;DHT22;18306;40.960;14.836;2023-03-14T01:57:21;14.80;99.90
31725;DHT22;18306;40.960;14.836;2023-03-14T01:59:56;14.70;99.90
31725;DHT22;18306;40.960;14.836;2023-03-14T02:02:26;14.60;99.90
31725;DHT22;18306;40.960;14.836;2023-03-14T02:04:55;14.70;99.90
31725;DHT22;18306;40.960;14.836;2023-03-14T02:07:35;14.70;99.90
31725;DHT22;18306;40.960;14.836;2023-03-14T02:10:12;14.70;99.90
31725;DHT22;18306;40.960;14.836;2023-03-14T02:12:41;14.70;99.90
31725;DHT22;18306;40.960;14.836;2023-03-14T02:15:19;14.50;99.90
31725;DHT22;18306;40.960;14.836;2023-03-14T02:17:54;14.60;99.90
31725;DHT22;18306;40.960;14.836;2023-03-14T02:21:05;14.50;99.90
31725;DHT22;18306;40.960;14.836;2023-03-14T02:27:16;14.10;99.90
31725;DHT22;18306;40.960;14.836;2023-03-14T02:30:03;13.90;99.90
31725;DHT22;18306;40.960;14.836;2023-03-14T02:32:33;14.00;99.90
31725;DHT22;18306;40.960;14.836;2023-03-14T02:35:05;13.70;99.90
31725;DHT22;18306;40.960;14.836;2023-03-14T02:37:38;14.10;99.90
31725;DHT22;18306;40.960;14.836;2023-03-14T02:40:10;14.10;99.90
31725;DHT22;18306;40.960;14.836;2023-03-14T02:42:39;14.10;99.90
31725;DHT22;18306;40.960;14.836;2023-03-14T02:47:44;14.30;99.90
31725;DHT22;18306;40.960;14.836;2023-03-14T02:50:17;14.50;99.90
31725;DHT22;18306;40.960;14.836;2023-03-14T02:52:45;14.50;99.90
31725;DHT22;18306;40.960;14.836;2023-03-14T02:55:13;14.60;99.90
31725;DHT22;18306;40.960;14.836;2023-03-14T02:57:47;14.60;99.90
31725;DHT22;18306;40.960;14.836;2023-03-14T03:00:18;14.60;99.90
31725;DHT22;18306;40.960;14.836;2023-03-14T03:02:46;14.50;99.90
31725;DHT22;18306;40.960;14.836;2023-03-14T03:05:15;14.60;99.90
31725;DHT22;18306;40.960;14.836;2023-03-14T03:07:42;14.60;99.90
31725;DHT22;18306;40.960;14.836;2023-03-14T03:10:10;14.60;99.90
31725;DHT22;18306;40.960;14.836;2023-03-14T03:12:38;14.40;99.90
31725;DHT22;18306;40.960;14.836;2023-03-14T03:15:06;14.30;99.90
31725;DHT22;18306;40.960;14.836;2023-03-14T03:17:36;14.40;99.90
31725;DHT22;18306;40.960;14.836;2023-03-14T03:20:06;14.30;99.90
31725;DHT22;18306;40.960;14.836;2023-03-14T03:22:36;14.10;99.90
31725;DHT22;18306;40.960;14.836;2023-03-14T03:25:06;14.10;99.90
31725;DHT22;18306;40.960;14.836;2023-03-14T03:27:35;13.90;99.90
31725;DHT22;18306;40.960;14.836;2023-03-14T03:30:06;13.80;99.90
31725;DHT22;18306;40.960;14.836;2023-03-14T03:32:35;13.70;99.90
31725;DHT22;18306;40.960;14.836;2023-03-14T03:35:04;13.70;99.90
31725;DHT22;18306;40.960;14.836;2023-03-14T03:37:34;13.90;99.90
31725;DHT22;18306;40.960;14.836;2023-03-14T03:40:04;13.70;99.90
31725;DHT22;18306;40.960;14.836;2023-03-14T03:42:34;13.80;99.90
31725;DHT22;18306;40.960;14.836;2023-03-14T03:45:03;13.80;99.90
31725;DHT22;18306;40.960;14.836;2023-03-14T03:47:32;13.80;99.90
31725;DHT22;18306;40.960;14.836;2023-03-14T03:50:00;13.80;99.90
31725;DHT22;18306;40.960;14.836;2023-03-14T03:52:27;13.70;99.90
31725;DHT22;18306;40.960;14.836;2023-03-14T03:54:55;13.60;99.90
31725;DHT22;18306;40.960;14.836;2023-03-14T03:57:25;13.50;99.90
31725;DHT22;18306;40.960;14.836;2023-03-14T03:59:53;13.50;99.90
31725;DHT22;18306;40.960;14.836;2023-03-14T04:02:20;13.60;99.90
31725;DHT22;18306;40.960;14.836;2023-03-14T04:04:51;13.60;99.90
31725;DHT22;18306;40.960;14.836;2023-03-14T04:07:19;13.50;99.90
31725;DHT22;18306;40.960;14.836;2023-03-14T04:09:46;13.50;99.90
31725;DHT22;18306;40.960;14.836;2023-03-14T04:12:34;13.50;99.90
31725;DHT22;18306;40.960;14.836;2023-03-14T04:15:11;13.50;99.90
31725;DHT22;18306;40.960;14.836;2023-03-14T04:17:43;13.50;99.90
31725;DHT22;18306;40.960;14.836;2023-03-14T04:20:13;13.90;99.90
31725;DHT22;18306;40.960;14.836;2023-03-14T04:22:41;13.80;99.90
31725;DHT22;18306;40.960;14.836;2023-03-14T04:25:11;13.90;99.90
31725;DHT22;18306;40.960;14.836;2023-03-14T04:27:44;14.00;99.90
31725;DHT22;18306;40.960;14.836;2023-03-14T04:30:19;14.20;99.90
31725;DHT22;18306;40.960;14.836;2023-03-14T04:32:59;14.20;99.90
31725;DHT22;18306;40.960;14.836;2023-03-14T04:35:31;14.30;99.90
31725;DHT22;18306;40.960;14.836;2023-03-14T04:38:03;14.40;99.90
31725;DHT22;18306;40.960;14.836;2023-03-14T04:40:32;14.40;99.90
31725;DHT22;18306;40.960;14.836;2023-03-14T04:43:04;14.40;99.90
31725;DHT22;18306;40.960;14.836;2023-03-14T04:45:32;14.40;99.90
31725;DHT22;18306;40.960;14.836;2023-03-14T04:48:01;14.50;99.90
31725;DHT22;18306;40.960;14.836;2023-03-14T04:50:28;14.50;99.90
31725;DHT22;18306;40.960;14.836;2023-03-14T04:52:56;14.70;99.90
31725;DHT22;18306;40.960;14.836;2023-03-14T04:55:24;14.50;99.90
31725;DHT22;18306;40.960;14.836;2023-03-14T04:57:53;14.50;99.90
31725;DHT22;18306;40.960;14.836;2023-03-14T05:00:22;14.30;99.90
31725;DHT22;18306;40.960;14.836;2023-03-14T05:03:08;14.20;99.90
31725;DHT22;18306;40.960;14.836;2023-03-14T05:05:47;14.10;99.90
31725;DHT22;18306;40.960;14.836;2023-03-14T05:08:35;14.10;99.90
31725;DHT22;18306;40.960;14.836;2023-03-14T05:11:21;13.80;99.90
31725;DHT22;18306;40.960;14.836;2023-03-14T05:14:11;13.80;99.90
31725;DHT22;18306;40.960;14.836;2023-03-14T05:17:08;13.80;99.90
31725;DHT22;18306;40.960;14.836;2023-03-14T05:19:46;13.70;99.90
31725;DHT22;18306;40.960;14.836;2023-03-14T05:22:37;13.60;99.90
31725;DHT22;18306;40.960;14.836;2023-03-14T05:25:22;13.60;99.90
31725;DHT22;18306;40.960;14.836;2023-03-14T05:28:08;13.50;99.90
31725;DHT22;18306;40.960;14.836;2023-03-14T05:31:08;13.50;99.90
31725;DHT22;18306;40.960;14.836;2023-03-14T05:33:51;13.30;99.90
31725;DHT22;18306;40.960;14.836;2023-03-14T05:36:45;13.10;99.90
31725;DHT22;18306;40.960;14.836;2023-03-14T05:39:21;13.10;99.90
31725;DHT22;18306;40.960;14.836;2023-03-14T05:42:07;13.10;99.90
31725;DHT22;18306;40.960;14.836;2023-03-14T05:44:53;13.10;99.90
31725;DHT22;18306;40.960;14.836;2023-03-14T05:47:48;13.20;99.90
31725;DHT22;18306;40.960;14.836;2023-03-14T05:50:28;13.30;99.90
31725;DHT22;18306;40.960;14.836;2023-03-14T05:53:25;13.40;99.90
31725;DHT22;18306;40.960;14.836;2023-03-14T05:56:12;13.50;99.90
31725;DHT22;18306;40.960;14.836;2023-03-14T05:58:58;13.80;99.90
31725;DHT22;18306;40.960;14.836;2023-03-14T06:01:44;14.10;99.90
31725;DHT22;18306;40.960;14.836;2023-03-14T06:04:19;14.50;99.90
31725;DHT22;18306;40.960;14.836;2023-03-14T06:06:57;14.50;99.90
31725;DHT22;18306;40.960;14.836;2023-03-14T06:09:33;14.60;99.90
31725;DHT22;18306;40.960;14.836;2023-03-14T06:12:05;14.70;99.90
31725;DHT22;18306;40.960;14.836;2023-03-14T06:14:44;14.80;99.90
31725;DHT22;18306;40.960;14.836;2023-03-14T06:17:16;14.90;99.90
31725;DHT22;18306;40.960;14.836;2023-03-14T06:19:57;15.10;99.90
31725;DHT22;18306;40.960;14.836;2023-03-14T06:22:25;15.00;99.90
31725;DHT22;18306;40.960;14.836;2023-03-14T06:24:53;15.10;99.90
31725;DHT22;18306;40.960;14.836;2023-03-14T06:27:22;15.20;99.90
31725;DHT22;18306;40.960;14.836;2023-03-14T06:29:53;15.50;99.90
31725;DHT22;18306;40.960;14.836;2023-03-14T06:32:21;15.60;99.90
31725;DHT22;18306;40.960;14.836;2023-03-14T06:34:52;15.50;99.90
31725;DHT22;18306;40.960;14.836;2023-03-14T06:37:20;15.80;99.90
31725;DHT22;18306;40.960;14.836;2023-03-14T06:39:48;16.00;99.90
31725;DHT22;18306;40.960;14.836;2023-03-14T06:42:29;16.20;99.90
31725;DHT22;18306;40.960;14.836;2023-03-14T06:44:57;16.30;99.90
31725;DHT22;18306;40.960;14.836;2023-03-14T06:47:26;16.40;99.90
31725;DHT22;18306;40.960;14.836;2023-03-14T06:49:54;16.30;99.90
31725;DHT22;18306;40.960;14.836;2023-03-14T06:52:22;16.30;99.90
31725;DHT22;18306;40.960;14.836;2023-03-14T06:54:49;16.30;99.90
31725;DHT22;18306;40.960;14.836;2023-03-14T06:57:20;16.40;99.90
31725;DHT22;18306;40.960;14.836;2023-03-14T06:59:48;16.60;99.90
31725;DHT22;18306;40.960;14.836;2023-03-14T07:02:15;16.70;99.90
31725;DHT22;18306;40.960;14.836;2023-03-14T07:04:44;16.50;99.90
31725;DHT22;18306;40.960;14.836;2023-03-14T07:07:11;16.50;99.90
31725;DHT22;18306;40.960;14.836;2023-03-14T07:09:39;16.70;99.80
31725;DHT22;18306;40.960;14.836;2023-03-14T07:12:06;16.70;99.20
31725;DHT22;18306;40.960;14.836;2023-03-14T07:14:33;16.60;98.80
31725;DHT22;18306;40.960;14.836;2023-03-14T07:17:04;16.60;97.90
31725;DHT22;18306;40.960;14.836;2023-03-14T07:19:31;16.40;98.40
31725;DHT22;18306;40.960;14.836;2023-03-14T07:21:59;16.50;98.00
31725;DHT22;18306;40.960;14.836;2023-03-14T07:24:28;16.60;97.50
31725;DHT22;18306;40.960;14.836;2023-03-14T07:26:55;16.60;97.00
31725;DHT22;18306;40.960;14.836;2023-03-14T07:29:23;16.80;96.60
31725;DHT22;18306;40.960;14.836;2023-03-14T07:31:50;16.80;96.00
31725;DHT22;18306;40.960;14.836;2023-03-14T07:34:20;16.80;96.20
31725;DHT22;18306;40.960;14.836;2023-03-14T07:36:51;16.70;96.00
31725;DHT22;18306;40.960;14.836;2023-03-14T07:39:18;16.80;96.00
31725;DHT22;18306;40.960;14.836;2023-03-14T07:42:05;16.70;96.10
31725;DHT22;18306;40.960;14.836;2023-03-14T07:44:59;16.50;96.00
31725;DHT22;18306;40.960;14.836;2023-03-14T07:47:26;16.60;96.10
31725;DHT22;18306;40.960;14.836;2023-03-14T07:49:53;16.70;95.80
31725;DHT22;18306;40.960;14.836;2023-03-14T07:52:21;16.80;95.80
31725;DHT22;18306;40.960;14.836;2023-03-14T07:54:55;17.10;96.10
31725;DHT22;18306;40.960;14.836;2023-03-14T07:57:23;17.10;95.90
31725;DHT22;18306;40.960;14.836;2023-03-14T07:59:54;17.10;95.50
31725;DHT22;18306;40.960;14.836;2023-03-14T08:02:21;17.00;95.90
31725;DHT22;18306;40.960;14.836;2023-03-14T08:04:54;17.00;96.00
31725;DHT22;18306;40.960;14.836;2023-03-14T08:07:24;16.70;96.00
31725;DHT22;18306;40.960;14.836;2023-03-14T08:09:52;16.60;96.40
31725;DHT22;18306;40.960;14.836;2023-03-14T08:12:19;16.50;96.80
31725;DHT22;18306;40.960;14.836;2023-03-14T08:14:47;16.50;96.70
31725;DHT22;18306;40.960;14.836;2023-03-14T08:17:14;16.50;97.20
31725;DHT22;18306;40.960;14.836;2023-03-14T08:19:42;16.40;97.10
31725;DHT22;18306;40.960;14.836;2023-03-14T08:22:09;16.40;97.10
31725;DHT22;18306;40.960;14.836;2023-03-14T08:24:40;16.30;97.40
31725;DHT22;18306;40.960;14.836;2023-03-14T08:27:08;16.30;96.50
31725;DHT22;18306;40.960;14.836;2023-03-14T08:29:36;16.40;97.20
31725;DHT22;18306;40.960;14.836;2023-03-14T08:32:07;16.40;97.10
31725;DHT22;18306;40.960;14.836;2023-03-14T08:34:35;16.40;96.90
31725;DHT22;18306;40.960;14.836;2023-03-14T08:37:03;16.50;96.50
31725;DHT22;18306;40.960;14.836;2023-03-14T08:39:30;16.40;96.70
31725;DHT22;18306;40.960;14.836;2023-03-14T08:41:58;16.50;97.40
31725;DHT22;18306;40.960;14.836;2023-03-14T08:44:25;16.60;96.70
31725;DHT22;18306;40.960;14.836;2023-03-14T08:46:53;16.60;96.20
31725;DHT22;18306;40.960;14.836;2023-03-14T08:49:20;16.60;96.10
31725;DHT22;18306;40.960;14.836;2023-03-14T08:51:48;16.70;95.60
31725;DHT22;18306;40.960;14.836;2023-03-14T08:54:16;16.80;95.10
31725;DHT22;18306;40.960;14.836;2023-03-14T08:56:45;16.80;94.20
31725;DHT22;18306;40.960;14.836;2023-03-14T08:59:13;16.90;93.30
31725;DHT22;18306;40.960;14.836;2023-03-14T09:01:40;17.00;93.00
31725;DHT22;18306;40.960;14.836;2023-03-14T09:04:08;17.20;93.20
31725;DHT22;18306;40.960;14.836;2023-03-14T09:06:36;17.60;93.10
31725;DHT22;18306;40.960;14.836;2023-03-14T09:09:10;17.80;92.60
31725;DHT22;18306;40.960;14.836;2023-03-14T09:11:42;18.00;91.80
31725;DHT22;18306;40.960;14.836;2023-03-14T09:14:09;17.90;91.10
31725;DHT22;18306;40.960;14.836;2023-03-14T09:16:37;17.70;91.10
31725;DHT22;18306;40.960;14.836;2023-03-14T09:19:04;17.80;91.50
31725;DHT22;18306;40.960;14.836;2023-03-14T09:21:32;17.80;91.20
31725;DHT22;18306;40.960;14.836;2023-03-14T09:24:00;17.90;91.30
31725;DHT22;18306;40.960;14.836;2023-03-14T09:26:27;18.20;91.00
31725;DHT22;18306;40.960;14.836;2023-03-14T09:29:01;18.30;90.00
31725;DHT22;18306;40.960;14.836;2023-03-14T09:31:34;18.30;90.20
31725;DHT22;18306;40.960;14.836;2023-03-14T09:34:15;18.30;89.60
31725;DHT22;18306;40.960;14.836;2023-03-14T09:36:53;18.30;90.10
31725;DHT22;18306;40.960;14.836;2023-03-14T09:39:24;18.40;88.20
31725;DHT22;18306;40.960;14.836;2023-03-14T09:41:54;18.40;88.80
31725;DHT22;18306;40.960;14.836;2023-03-14T09:44:32;18.10;87.20
31725;DHT22;18306;40.960;14.836;2023-03-14T09:47:06;18.10;89.40
31725;DHT22;18306;40.960;14.836;2023-03-14T09:49:37;18.20;88.70
31725;DHT22;18306;40.960;14.836;2023-03-14T09:52:22;18.20;88.90
31725;DHT22;18306;40.960;14.836;2023-03-14T09:54:51;18.10;88.40
31725;DHT22;18306;40.960;14.836;2023-03-14T09:57:26;18.30;89.60
31725;DHT22;18306;40.960;14.836;2023-03-14T09:59:57;18.30;88.60
31725;DHT22;18306;40.960;14.836;2023-03-14T10:02:34;18.30;87.90
31725;DHT22;18306;40.960;14.836;2023-03-14T10:05:16;18.30;88.40
31725;DHT22;18306;40.960;14.836;2023-03-14T10:07:45;18.30;88.30
31725;DHT22;18306;40.960;14.836;2023-03-14T10:10:25;18.70;88.80
31725;DHT22;18306;40.960;14.836;2023-03-14T10:13:31;18.80;88.40
31725;DHT22;18306;40.960;14.836;2023-03-14T10:16:00;18.70;87.20
31725;DHT22;18306;40.960;14.836;2023-03-14T10:18:31;18.80;86.50
31725;DHT22;18306;40.960;14.836;2023-03-14T10:23:49;18.90;87.00
31725;DHT22;18306;40.960;14.836;2023-03-14T10:26:28;18.90;86.20
31725;DHT22;18306;40.960;14.836;2023-03-14T10:29:12;18.90;85.10
31725;DHT22;18306;40.960;14.836;2023-03-14T10:31:50;19.20;85.90
31725;DHT22;18306;40.960;14.836;2023-03-14T10:34:26;19.20;85.20
31725;DHT22;18306;40.960;14.836;2023-03-14T10:36:56;19.20;86.00
31725;DHT22;18306;40.960;14.836;2023-03-14T10:39:34;19.30;86.10
31725;DHT22;18306;40.960;14.836;2023-03-14T10:42:14;19.00;85.50
31725;DHT22;18306;40.960;14.836;2023-03-14T10:44:44;19.00;87.20
31725;DHT22;18306;40.960;14.836;2023-03-14T10:47:20;19.00;86.80
31725;DHT22;18306;40.960;14.836;2023-03-14T10:49:49;19.10;87.90
31725;DHT22;18306;40.960;14.836;2023-03-14T10:52:26;19.20;86.90
31725;DHT22;18306;40.960;14.836;2023-03-14T10:55:00;19.30;86.10
31725;DHT22;18306;40.960;14.836;2023-03-14T10:57:28;19.10;86.60
31725;DHT22;18306;40.960;14.836;2023-03-14T10:59:56;19.00;87.20
31725;DHT22;18306;40.960;14.836;2023-03-14T11:02:42;18.80;85.70
31725;DHT22;18306;40.960;14.836;2023-03-14T11:05:32;18.80;87.00
31725;DHT22;18306;40.960;14.836;2023-03-14T11:08:07;18.80;86.50
31725;DHT22;18306;40.960;14.836;2023-03-14T11:10:38;18.70;86.20
31725;DHT22;18306;40.960;14.836;2023-03-14T11:13:26;18.70;86.70
31725;DHT22;18306;40.960;14.836;2023-03-14T11:22:00;18.80;85.90
31725;DHT22;18306;40.960;14.836;2023-03-14T11:28:03;19.20;85.30
31725;DHT22;18306;40.960;14.836;2023-03-14T11:30:38;19.10;85.50
31725;DHT22;18306;40.960;14.836;2023-03-14T11:33:20;19.10;86.30
31725;DHT22;18306;40.960;14.836;2023-03-14T11:35:53;18.90;88.00
31725;DHT22;18306;40.960;14.836;2023-03-14T11:38:50;19.20;88.60
31725;DHT22;18306;40.960;14.836;2023-03-14T11:41:55;19.30;86.70
31725;DHT22;18306;40.960;14.836;2023-03-14T11:44:35;19.40;87.90
31725;DHT22;18306;40.960;14.836;2023-03-14T11:47:12;19.30;85.80
31725;DHT22;18306;40.960;14.836;2023-03-14T11:50:00;19.10;86.10
31725;DHT22;18306;40.960;14.836;2023-03-14T11:52:55;19.40;85.80
31725;DHT22;18306;40.960;14.836;2023-03-14T11:55:29;19.60;85.10
31725;DHT22;18306;40.960;14.836;2023-03-14T11:58:02;19.70;85.60
31725;DHT22;18306;40.960;14.836;2023-03-14T12:00:31;19.50;85.40
31725;DHT22;18306;40.960;14.836;2023-03-14T12:03:35;19.50;86.70
31725;DHT22;18306;40.960;14.836;2023-03-14T12:06:24;19.60;85.90
31725;DHT22;18306;40.960;14.836;2023-03-14T12:08:59;19.60;86.60
31725;DHT22;18306;40.960;14.836;2023-03-14T12:11:35;19.90;86.90
31725;DHT22;18306;40.960;14.836;2023-03-14T12:14:22;20.00;84.70
31725;DHT22;18306;40.960;14.836;2023-03-14T12:17:04;20.00;82.40
31725;DHT22;18306;40.960;14.836;2023-03-14T12:19:38;20.00;81.40
31725;DHT22;18306;40.960;14.836;2023-03-14T12:22:43;19.90;81.20
31725;DHT22;18306;40.960;14.836;2023-03-14T12:30:44;19.90;77.80
31725;DHT22;18306;40.960;14.836;2023-03-14T12:33:21;19.70;77.40
31725;DHT22;18306;40.960;14.836;2023-03-14T12:36:05;19.60;77.60
31725;DHT22;18306;40.960;14.836;2023-03-14T12:41:44;19.40;76.90
31725;DHT22;18306;40.960;14.836;2023-03-14T12:47:00;19.30;78.60
31725;DHT22;18306;40.960;14.836;2023-03-14T12:49:41;19.30;77.80
31725;DHT22;18306;40.960;14.836;2023-03-14T12:52:21;19.20;78.70
31725;DHT22;18306;40.960;14.836;2023-03-14T12:55:06;19.30;79.70
31725;DHT22;18306;40.960;14.836;2023-03-14T13:00:31;19.00;80.80
31725;DHT22;18306;40.960;14.836;2023-03-14T13:03:26;18.60;81.10
31725;DHT22;18306;40.960;14.836;2023-03-14T13:06:02;18.40;82.90
31725;DHT22;18306;40.960;14.836;2023-03-14T13:08:36;18.40;84.50
31725;DHT22;18306;40.960;14.836;2023-03-14T13:11:19;18.40;83.50
31725;DHT22;18306;40.960;14.836;2023-03-14T13:13:57;18.60;83.60
31725;DHT22;18306;40.960;14.836;2023-03-14T13:16:25;18.70;80.70
31725;DHT22;18306;40.960;14.836;2023-03-14T13:19:03;18.50;79.00
31725;DHT22;18306;40.960;14.836;2023-03-14T13:21:37;18.70;79.70
31725;DHT22;18306;40.960;14.836;2023-03-14T13:24:07;18.70;79.30
31725;DHT22;18306;40.960;14.836;2023-03-14T13:26:45;18.70;79.60
31725;DHT22;18306;40.960;14.836;2023-03-14T13:29:25;18.60;80.10
31725;DHT22;18306;40.960;14.836;2023-03-14T13:31:59;18.50;80.90
31725;DHT22;18306;40.960;14.836;2023-03-14T13:34:28;18.40;81.90
31725;DHT22;18306;40.960;14.836;2023-03-14T13:36:56;18.40;82.40
31725;DHT22;18306;40.960;14.836;2023-03-14T13:39:25;18.30;83.30
31725;DHT22;18306;40.960;14.836;2023-03-14T13:42:01;18.20;84.40
31725;DHT22;18306;40.960;14.836;2023-03-14T13:44:37;18.10;84.20
31725;DHT22;18306;40.960;14.836;2023-03-14T13:47:15;18.10;83.90
31725;DHT22;18306;40.960;14.836;2023-03-14T13:49:43;18.30;84.40
31725;DHT22;18306;40.960;14.836;2023-03-14T13:52:44;18.30;84.40
31725;DHT22;18306;40.960;14.836;2023-03-14T13:55:17;18.40;84.70
31725;DHT22;18306;40.960;14.836;2023-03-14T13:57:54;18.50;84.70
31725;DHT22;18306;40.960;14.836;2023-03-14T14:00:27;18.50;84.70
31725;DHT22;18306;40.960;14.836;2023-03-14T14:02:55;18.50;84.00
31725;DHT22;18306;40.960;14.836;2023-03-14T14:05:27;18.60;84.40
31725;DHT22;18306;40.960;14.836;2023-03-14T14:07:55;18.70;83.80
31725;DHT22;18306;40.960;14.836;2023-03-14T14:10:23;18.60;84.10
31725;DHT22;18306;40.960;14.836;2023-03-14T14:13:01;18.90;83.90
31725;DHT22;18306;40.960;14.836;2023-03-14T14:15:31;19.10;83.00
31725;DHT22;18306;40.960;14.836;2023-03-14T14:18:21;19.10;82.60
31725;DHT22;18306;40.960;14.836;2023-03-14T14:20:51;19.10;82.10
31725;DHT22;18306;40.960;14.836;2023-03-14T14:23:25;19.00;81.60
31725;DHT22;18306;40.960;14.836;2023-03-14T14:25:53;18.90;82.00
31725;DHT22;18306;40.960;14.836;2023-03-14T14:28:34;18.80;82.00
31725;DHT22;18306;40.960;14.836;2023-03-14T14:33:44;18.50;81.90
31725;DHT22;18306;40.960;14.836;2023-03-14T14:39:20;18.20;82.90
31725;DHT22;18306;40.960;14.836;2023-03-14T14:41:50;18.00;83.50
31725;DHT22;18306;40.960;14.836;2023-03-14T14:44:32;18.00;83.60
31725;DHT22;18306;40.960;14.836;2023-03-14T14:47:03;17.70;88.80
31725;DHT22;18306;40.960;14.836;2023-03-14T14:49:32;17.70;90.10
31725;DHT22;18306;40.960;14.836;2023-03-14T14:52:15;17.30;90.30
31725;DHT22;18306;40.960;14.836;2023-03-14T14:55:02;17.10;91.20
31725;DHT22;18306;40.960;14.836;2023-03-14T14:57:40;16.70;91.90
31725;DHT22;18306;40.960;14.836;2023-03-14T15:00:19;16.50;92.50
31725;DHT22;18306;40.960;14.836;2023-03-14T15:02:50;16.50;92.40
31725;DHT22;18306;40.960;14.836;2023-03-14T15:05:22;16.60;92.50
31725;DHT22;18306;40.960;14.836;2023-03-14T15:07:50;16.40;92.70
31725;DHT22;18306;40.960;14.836;2023-03-14T15:10:23;16.70;94.20
31725;DHT22;18306;40.960;14.836;2023-03-14T15:12:51;16.50;94.60
31725;DHT22;18306;40.960;14.836;2023-03-14T15:15:22;16.60;94.30
31725;DHT22;18306;40.960;14.836;2023-03-14T15:17:50;16.60;95.10
31725;DHT22;18306;40.960;14.836;2023-03-14T15:20:18;16.50;95.00
31725;DHT22;18306;40.960;14.836;2023-03-14T15:22:46;16.70;94.70
31725;DHT22;18306;40.960;14.836;2023-03-14T15:25:14;16.70;94.50
31725;DHT22;18306;40.960;14.836;2023-03-14T15:27:43;16.70;94.00
31725;DHT22;18306;40.960;14.836;2023-03-14T15:30:14;16.80;94.20
31725;DHT22;18306;40.960;14.836;2023-03-14T15:32:42;17.00;94.30
31725;DHT22;18306;40.960;14.836;2023-03-14T15:35:10;16.80;93.50
31725;DHT22;18306;40.960;14.836;2023-03-14T15:37:37;16.60;93.80
31725;DHT22;18306;40.960;14.836;2023-03-14T15:40:05;16.40;93.40
31725;DHT22;18306;40.960;14.836;2023-03-14T15:42:41;16.30;93.10
31725;DHT22;18306;40.960;14.836;2023-03-14T15:45:09;16.20;93.30
31725;DHT22;18306;40.960;14.836;2023-03-14T15:47:37;16.20;93.70
31725;DHT22;18306;40.960;14.836;2023-03-14T15:50:04;15.90;93.90
31725;DHT22;18306;40.960;14.836;2023-03-14T15:52:39;16.30;94.10
31725;DHT22;18306;40.960;14.836;2023-03-14T15:55:12;16.50;93.90
31725;DHT22;18306;40.960;14.836;2023-03-14T15:57:43;16.70;94.00
31725;DHT22;18306;40.960;14.836;2023-03-14T16:00:19;16.70;94.10
31725;DHT22;18306;40.960;14.836;2023-03-14T16:02:51;16.70;94.30
31725;DHT22;18306;40.960;14.836;2023-03-14T16:05:18;16.70;95.10
31725;DHT22;18306;40.960;14.836;2023-03-14T16:07:46;16.60;96.20
31725;DHT22;18306;40.960;14.836;2023-03-14T16:10:18;16.50;97.40
31725;DHT22;18306;40.960;14.836;2023-03-14T16:12:52;16.40;97.70
31725;DHT22;18306;40.960;14.836;2023-03-14T16:15:22;16.40;98.10
31725;DHT22;18306;40.960;14.836;2023-03-14T16:17:53;16.20;97.80
31725;DHT22;18306;40.960;14.836;2023-03-14T16:20:27;16.10;98.10
31725;DHT22;18306;40.960;14.836;2023-03-14T16:22:59;15.90;98.80
31725;DHT22;18306;40.960;14.836;2023-03-14T16:25:26;15.90;98.90
31725;DHT22;18306;40.960;14.836;2023-03-14T16:27:54;16.00;99.30
31725;DHT22;18306;40.960;14.836;2023-03-14T16:30:22;16.00;99.20
31725;DHT22;18306;40.960;14.836;2023-03-14T16:32:50;15.80;99.50
31725;DHT22;18306;40.960;14.836;2023-03-14T16:35:17;15.60;99.70